Time;durP1;ratioP1;P1;durP2;ratioP2;P2;SDS_P1;SDS_P2;PMS_P1;PMS_P2;Temp;Humidity;BMP_temperature;BMP_pressure;BME280_temperature;BME280_humidity;BME280_pressure;Samples;Min_cycle;Max_cycle;Signal;HPM_P1;HPM_P2
2022/04/29 00:00:31;;;;;;;0.20;0.20;;;8.60;99.90;;;;;;5027836;28;20034;-68
2022/04/29 00:02:57;;;;;;;0.10;0.10;;;8.60;99.90;;;;;;5026335;28;20051;-69
2022/04/29 00:05:23;;;;;;;0.08;0.08;;;8.60;99.90;;;;;;5017880;28;20038;-68
2022/04/29 00:07:48;;;;;;;0.10;0.10;;;8.50;99.90;;;;;;5012490;28;20515;-69
2022/04/29 00:10:15;;;;;;;1.75;0.85;;;8.50;99.90;;;;;;5017525;28;20033;-69
2022/04/29 00:12:43;;;;;;;0.10;0.10;;;8.40;99.90;;;;;;5026239;28;20038;-68
2022/04/29 00:15:10;;;;;;;0.10;0.10;;;8.40;99.90;;;;;;5027436;28;20049;-69
2022/04/29 00:17:36;;;;;;;0.10;0.10;;;8.50;99.90;;;;;;5024815;28;20029;-69
2022/04/29 00:20:03;;;;;;;0.10;0.10;;;8.40;99.90;;;;;;5029254;28;20112;-68
2022/04/29 00:22:28;;;;;;;0.10;0.10;;;8.40;99.90;;;;;;5031368;28;20064;-69
2022/04/29 00:24:54;;;;;;;0.10;0.10;;;8.40;99.90;;;;;;5027670;28;20053;-68
2022/04/29 00:27:19;;;;;;;0.00;0.00;;;8.40;99.90;;;;;;5012765;28;20080;-69
2022/04/29 00:29:45;;;;;;;0.10;0.10;;;8.30;99.90;;;;;;5028247;28;20041;-68
2022/04/29 00:32:10;;;;;;;0.00;0.00;;;8.30;99.90;;;;;;5033096;28;20038;-68
2022/04/29 00:34:36;;;;;;;0.10;0.10;;;8.30;99.90;;;;;;5027340;28;20635;-68
2022/04/29 00:37:01;;;;;;;0.10;0.10;;;8.30;99.90;;;;;;5022062;28;20143;-68
2022/04/29 00:39:27;;;;;;;0.00;0.00;;;8.30;99.90;;;;;;5032067;28;20045;-68
2022/04/29 00:41:52;;;;;;;0.10;0.10;;;8.40;99.90;;;;;;5031095;28;20555;-68
2022/04/29 00:44:18;;;;;;;0.10;0.10;;;8.30;99.90;;;;;;5030540;28;20041;-68
2022/04/29 00:46:45;;;;;;;0.55;0.55;;;8.30;99.90;;;;;;5020383;28;20038;-68
2022/04/29 00:49:13;;;;;;;0.10;0.10;;;8.30;99.90;;;;;;5023761;28;20033;-68
2022/04/29 00:51:40;;;;;;;0.20;0.20;;;8.30;99.90;;;;;;5027387;28;20227;-68
2022/04/29 00:54:09;;;;;;;27.42;2.53;;;8.30;99.90;;;;;;5025121;28;20045;-69
2022/04/29 00:56:38;;;;;;;0.00;0.00;;;8.30;99.90;;;;;;5021273;28;20650;-68
2022/04/29 00:59:19;;;;;;;0.00;0.00;;;8.40;99.90;;;;;;5023036;28;20085;-69
2022/04/29 01:01:46;;;;;;;0.08;0.08;;;8.30;99.90;;;;;;5024828;28;20493;-68
2022/04/29 01:04:27;;;;;;;0.22;0.22;;;8.30;99.90;;;;;;5026738;28;20037;-68
2022/04/29 01:06:52;;;;;;;0.20;0.20;;;8.40;99.90;;;;;;5024996;28;20065;-68
2022/04/29 01:09:18;;;;;;;0.10;0.10;;;8.40;99.90;;;;;;5019855;28;20370;-68
2022/04/29 01:11:45;;;;;;;0.10;0.10;;;8.30;99.90;;;;;;5027965;28;20037;-69
2022/04/29 01:14:11;;;;;;;0.00;0.00;;;8.40;99.90;;;;;;5018740;28;20045;-69
2022/04/29 01:16:37;;;;;;;0.10;0.10;;;8.30;99.90;;;;;;5030975;28;20038;-69
2022/04/29 01:19:02;;;;;;;0.20;0.20;;;8.30;99.90;;;;;;5022003;28;20523;-68
2022/04/29 01:21:28;;;;;;;2.67;1.50;;;8.30;99.90;;;;;;5029450;28;20485;-68
2022/04/29 01:23:53;;;;;;;0.00;0.00;;;8.40;99.90;;;;;;5026862;28;20056;-69
2022/04/29 01:26:19;;;;;;;0.20;0.20;;;8.40;99.90;;;;;;5024206;28;20041;-68
2022/04/29 01:28:45;;;;;;;1.60;1.55;;;8.40;99.90;;;;;;5026919;28;20549;-68
2022/04/29 01:31:15;;;;;;;0.00;0.00;;;8.40;99.90;;;;;;5012330;28;20052;-68
2022/04/29 01:33:47;;;;;;;0.00;0.00;;;8.40;99.90;;;;;;5025066;28;20041;-68
2022/04/29 01:36:13;;;;;;;0.03;0.03;;;8.40;99.90;;;;;;5026909;28;20073;-69
2022/04/29 01:38:39;;;;;;;0.30;0.30;;;8.40;99.90;;;;;;5020476;28;20510;-68
2022/04/29 01:41:05;;;;;;;0.10;0.10;;;8.40;99.90;;;;;;5026592;28;20049;-68
2022/04/29 01:43:31;;;;;;;0.10;0.10;;;8.40;99.90;;;;;;5028235;28;20049;-68
2022/04/29 01:45:57;;;;;;;0.38;0.38;;;8.40;99.90;;;;;;5023968;28;20042;-68
2022/04/29 01:48:24;;;;;;;0.10;0.10;;;8.40;99.90;;;;;;5026709;28;20099;-68
2022/04/29 01:50:49;;;;;;;0.00;0.00;;;8.40;99.90;;;;;;5021530;28;20050;-69
2022/04/29 01:53:15;;;;;;;0.10;0.10;;;8.40;99.90;;;;;;5025110;28;20064;-69
2022/04/29 01:55:40;;;;;;;0.10;0.10;;;8.30;99.90;;;;;;5028166;28;20397;-69
2022/04/29 01:58:06;;;;;;;1.45;0.75;;;8.40;99.90;;;;;;5028435;28;20616;-69
2022/04/29 02:00:32;;;;;;;0.10;0.10;;;8.40;99.90;;;;;;5023962;28;20205;-69
2022/04/29 02:02:57;;;;;;;4.30;0.90;;;8.40;99.90;;;;;;5023144;28;20504;-68
2022/04/29 02:05:23;;;;;;;0.10;0.10;;;8.30;99.90;;;;;;5030670;28;20121;-68
2022/04/29 02:07:49;;;;;;;0.10;0.10;;;8.30;99.90;;;;;;5021876;28;20551;-68
2022/04/29 02:10:14;;;;;;;0.10;0.10;;;8.30;99.90;;;;;;5015607;28;20639;-68
2022/04/29 02:12:40;;;;;;;0.20;0.20;;;8.30;99.90;;;;;;5010713;28;20748;-69
2022/04/29 02:15:06;;;;;;;0.93;0.80;;;8.20;99.90;;;;;;5019318;28;20146;-68
2022/04/29 02:17:32;;;;;;;0.10;0.10;;;8.20;99.90;;;;;;5026865;28;20041;-68
2022/04/29 02:19:57;;;;;;;0.10;0.10;;;8.20;99.90;;;;;;5020316;28;20463;-69
2022/04/29 02:22:23;;;;;;;0.10;0.10;;;8.20;99.90;;;;;;5013550;28;20053;-68
2022/04/29 02:24:48;;;;;;;0.10;0.10;;;8.20;99.90;;;;;;5020809;28;20046;-68
2022/04/29 02:27:14;;;;;;;0.10;0.10;;;8.20;99.90;;;;;;5017657;28;20072;-68
2022/04/29 02:29:40;;;;;;;0.10;0.10;;;8.20;99.90;;;;;;5030360;28;20128;-68
2022/04/29 02:32:06;;;;;;;2.05;1.95;;;8.20;99.90;;;;;;5021354;28;20077;-68
2022/04/29 02:34:31;;;;;;;0.10;0.10;;;8.10;99.90;;;;;;5026671;28;20037;-68
2022/04/29 02:36:57;;;;;;;0.08;0.08;;;8.10;99.90;;;;;;5027561;28;20439;-68
2022/04/29 02:39:22;;;;;;;0.10;0.10;;;8.20;99.90;;;;;;5019771;28;20050;-68
2022/04/29 02:41:48;;;;;;;0.00;0.00;;;8.10;99.90;;;;;;5026083;28;20154;-68
2022/04/29 02:44:14;;;;;;;0.10;0.10;;;8.10;99.90;;;;;;5022519;28;20378;-68
2022/04/29 02:47:06;;;;;;;0.10;0.10;;;8.10;99.90;;;;;;5022181;28;20060;-69
2022/04/29 02:49:26;;;;;;;0.10;0.10;;;8.10;99.90;;;;;;5027889;28;20037;-68
2022/04/29 02:51:51;;;;;;;0.10;0.10;;;8.10;99.90;;;;;;5016083;28;20041;-68
2022/04/29 02:54:17;;;;;;;0.10;0.10;;;8.10;99.90;;;;;;5019486;28;20089;-68
2022/04/29 02:56:42;;;;;;;0.10;0.10;;;8.10;99.90;;;;;;5020641;28;20440;-68
2022/04/29 02:59:08;;;;;;;0.10;0.10;;;8.10;99.90;;;;;;5015985;28;20041;-68
2022/04/29 03:01:33;;;;;;;0.30;0.30;;;8.00;99.90;;;;;;5023399;28;20038;-68
2022/04/29 03:04:00;;;;;;;0.10;0.10;;;8.00;99.90;;;;;;5015947;28;20508;-68
2022/04/29 03:06:26;;;;;;;0.32;0.20;;;8.00;99.90;;;;;;5023259;28;20065;-68
2022/04/29 03:08:52;;;;;;;0.10;0.10;;;8.00;99.90;;;;;;5013024;28;20058;-68
2022/04/29 03:11:17;;;;;;;0.20;0.20;;;8.00;99.90;;;;;;5018846;28;20067;-68
2022/04/29 03:13:43;;;;;;;2.55;0.85;;;8.00;99.90;;;;;;5013549;28;20053;-68
2022/04/29 03:16:09;;;;;;;0.10;0.10;;;8.00;99.90;;;;;;5024533;28;20041;-68
2022/04/29 03:18:34;;;;;;;0.05;0.05;;;8.00;99.90;;;;;;5028465;28;20095;-67
2022/04/29 03:21:00;;;;;;;0.20;0.20;;;8.00;99.90;;;;;;5028667;28;20041;-67
2022/04/29 03:23:26;;;;;;;0.10;0.10;;;8.10;99.90;;;;;;5018625;28;20114;-67
2022/04/29 03:25:53;;;;;;;0.10;0.10;;;8.10;99.90;;;;;;5020370;28;20060;-67
2022/04/29 03:28:18;;;;;;;0.10;0.10;;;8.10;99.90;;;;;;5017499;28;20404;-67
2022/04/29 03:30:45;;;;;;;0.10;0.10;;;8.10;99.90;;;;;;5028955;28;20051;-67
2022/04/29 03:33:11;;;;;;;0.80;0.80;;;8.10;99.90;;;;;;5018612;28;20088;-67
2022/04/29 03:35:42;;;;;;;0.10;0.10;;;8.00;99.90;;;;;;5021686;28;20072;-67
2022/04/29 03:38:08;;;;;;;0.10;0.10;;;8.00;99.90;;;;;;5017226;28;20041;-67
2022/04/29 03:40:34;;;;;;;0.30;0.30;;;8.10;99.90;;;;;;5024417;28;20055;-67
2022/04/29 03:42:59;;;;;;;1.05;1.00;;;8.10;99.90;;;;;;5028758;28;20048;-67
2022/04/29 03:45:26;;;;;;;0.28;0.28;;;8.10;99.90;;;;;;5024525;28;20057;-67
2022/04/29 03:47:55;;;;;;;0.10;0.10;;;8.10;99.90;;;;;;5023420;28;20745;-67
2022/04/29 03:50:25;;;;;;;0.10;0.10;;;8.20;99.90;;;;;;5022175;28;20048;-68
2022/04/29 03:52:59;;;;;;;0.10;0.10;;;8.20;99.90;;;;;;5020737;28;20067;-68
2022/04/29 03:55:27;;;;;;;0.22;0.22;;;8.30;99.90;;;;;;5018589;28;20046;-68
2022/04/29 03:57:55;;;;;;;3.92;0.90;;;8.30;99.90;;;;;;5017268;28;20049;-68
2022/04/29 04:00:26;;;;;;;0.00;0.00;;;8.20;99.90;;;;;;5029501;28;20037;-68
2022/04/29 04:02:51;;;;;;;0.10;0.10;;;8.30;99.90;;;;;;5028816;28;20082;-68
2022/04/29 04:05:17;;;;;;;0.10;0.10;;;8.20;99.90;;;;;;5025012;28;20445;-68
2022/04/29 04:07:45;;;;;;;0.00;0.00;;;8.10;99.90;;;;;;5026698;28;20067;-68
2022/04/29 04:10:12;;;;;;;0.10;0.10;;;8.10;99.90;;;;;;5028078;28;20041;-68
2022/04/29 04:12:42;;;;;;;0.10;0.10;;;8.10;99.90;;;;;;5017538;28;20128;-68
2022/04/29 04:15:09;;;;;;;0.03;0.03;;;8.10;99.90;;;;;;5026557;28;20051;-68
2022/04/29 04:17:36;;;;;;;0.30;0.30;;;8.10;99.90;;;;;;5018260;28;20567;-68
2022/04/29 04:20:02;;;;;;;0.10;0.10;;;8.10;99.90;;;;;;5017298;28;20049;-68
2022/04/29 04:22:28;;;;;;;0.10;0.10;;;8.10;99.90;;;;;;5021660;28;20532;-68
2022/04/29 04:24:54;;;;;;;0.00;0.00;;;8.20;99.90;;;;;;5014714;28;20041;-69
2022/04/29 04:27:19;;;;;;;0.10;0.10;;;8.20;99.90;;;;;;5025418;28;20537;-69
2022/04/29 04:29:45;;;;;;;0.00;0.00;;;8.30;99.90;;;;;;5013396;28;20124;-69
2022/04/29 04:32:10;;;;;;;0.10;0.10;;;8.30;99.90;;;;;;5016224;28;20121;-69
2022/04/29 04:34:51;;;;;;;0.10;0.10;;;8.30;99.90;;;;;;5020015;28;20061;-69
2022/04/29 04:37:25;;;;;;;0.20;0.20;;;8.30;99.90;;;;;;5026456;28;20069;-69
2022/04/29 04:39:51;;;;;;;;;;;8.30;99.90;;;;;;5021552;28;20622;-69
2022/04/29 04:42:20;;;;;;;1.65;1.45;;;8.30;99.90;;;;;;5016279;28;19921;-69
2022/04/29 04:44:47;;;;;;;0.20;0.20;;;8.30;99.90;;;;;;5022725;28;20038;-69
2022/04/29 04:47:13;;;;;;;0.10;0.10;;;8.30;99.90;;;;;;5024297;28;20500;-69
2022/04/29 04:49:39;;;;;;;0.28;0.28;;;8.30;99.90;;;;;;5016602;28;20041;-69
2022/04/29 04:52:05;;;;;;;0.10;0.10;;;8.20;99.90;;;;;;5021551;28;20049;-69
2022/04/29 04:54:31;;;;;;;0.10;0.10;;;8.30;99.90;;;;;;5019404;28;20077;-69
2022/04/29 04:56:57;;;;;;;0.00;0.00;;;8.30;99.90;;;;;;5016030;28;20135;-69
2022/04/29 04:59:22;;;;;;;0.20;0.20;;;8.30;99.90;;;;;;5027881;28;20060;-69
2022/04/29 05:01:48;;;;;;;0.10;0.10;;;8.30;99.90;;;;;;5028288;28;20054;-69
2022/04/29 05:04:13;;;;;;;0.10;0.10;;;8.30;99.90;;;;;;5014810;28;20050;-69
2022/04/29 05:06:39;;;;;;;0.10;0.10;;;8.40;99.90;;;;;;5016501;28;20233;-69
2022/04/29 05:09:06;;;;;;;0.28;0.28;;;8.40;99.90;;;;;;5023833;28;20136;-68
2022/04/29 05:11:31;;;;;;;0.10;0.10;;;8.40;99.90;;;;;;5029044;28;20050;-69
2022/04/29 05:13:57;;;;;;;0.28;0.28;;;8.40;99.90;;;;;;5022788;28;20068;-69
2022/04/29 05:16:24;;;;;;;0.20;0.20;;;8.50;99.90;;;;;;5021131;28;20443;-69
2022/04/29 05:18:49;;;;;;;0.25;0.25;;;8.50;99.90;;;;;;5026392;28;20050;-69
2022/04/29 05:21:15;;;;;;;0.10;0.10;;;8.50;99.90;;;;;;5019951;28;20046;-69
2022/04/29 05:23:41;;;;;;;1.65;0.95;;;8.60;99.90;;;;;;5020128;28;20049;-69
2022/04/29 05:26:07;;;;;;;0.20;0.20;;;8.60;99.90;;;;;;5031426;28;20038;-69
2022/04/29 05:28:33;;;;;;;0.00;0.00;;;8.60;99.90;;;;;;5024240;28;20051;-69
2022/04/29 05:30:59;;;;;;;0.10;0.10;;;8.70;99.90;;;;;;5018113;28;20045;-69
2022/04/29 05:33:25;;;;;;;0.10;0.10;;;8.70;99.90;;;;;;5027904;28;20042;-68
2022/04/29 05:35:51;;;;;;;4.32;2.33;;;8.70;99.90;;;;;;5015403;28;20048;-69
2022/04/29 05:38:17;;;;;;;0.00;0.00;;;8.70;99.90;;;;;;5025931;28;20116;-68
2022/04/29 05:43:28;;;;;;;0.10;0.10;;;8.70;99.90;;;;;;5020989;28;20038;-69
2022/04/29 05:45:53;;;;;;;0.10;0.10;;;8.80;99.90;;;;;;5027096;28;20373;-69
2022/04/29 05:48:19;;;;;;;0.10;0.10;;;8.80;99.90;;;;;;5022722;28;20049;-69
2022/04/29 05:50:46;;;;;;;0.40;0.40;;;8.80;99.90;;;;;;5024097;28;20037;-69
2022/04/29 05:53:12;;;;;;;0.10;0.10;;;8.90;99.90;;;;;;5022534;28;20063;-69
2022/04/29 05:55:37;;;;;;;0.65;0.65;;;8.90;99.90;;;;;;5020880;28;20065;-69
2022/04/29 05:58:03;;;;;;;0.10;0.10;;;8.90;99.90;;;;;;5022345;28;20050;-69
2022/04/29 06:00:28;;;;;;;0.20;0.20;;;8.90;99.90;;;;;;5024334;28;20072;-69
2022/04/29 06:02:54;;;;;;;0.00;0.00;;;9.00;99.90;;;;;;5030574;28;20404;-69
2022/04/29 06:05:21;;;;;;;0.10;0.10;;;9.10;99.90;;;;;;5029340;28;20388;-69
2022/04/29 06:07:46;;;;;;;0.00;0.00;;;9.10;99.90;;;;;;5014715;28;20061;-69
2022/04/29 06:10:12;;;;;;;0.28;0.28;;;9.10;99.90;;;;;;5029766;28;20421;-69
2022/04/29 06:12:39;;;;;;;0.10;0.10;;;9.20;99.90;;;;;;5027457;28;20034;-69
2022/04/29 06:15:05;;;;;;;0.63;0.63;;;9.20;99.90;;;;;;5028668;28;20076;-68
2022/04/29 06:17:31;;;;;;;0.10;0.10;;;9.30;99.90;;;;;;5019727;28;20096;-68
2022/04/29 06:19:57;;;;;;;0.10;0.10;;;9.40;99.90;;;;;;5030368;28;20524;-69
2022/04/29 06:22:23;;;;;;;0.10;0.10;;;9.40;99.90;;;;;;5017343;28;20401;-69
2022/04/29 06:24:50;;;;;;;0.00;0.00;;;9.50;99.90;;;;;;5021310;28;20518;-69
2022/04/29 06:27:15;;;;;;;1.88;0.80;;;9.50;99.90;;;;;;5019254;28;20049;-69
2022/04/29 06:29:41;;;;;;;0.10;0.10;;;9.50;99.90;;;;;;5029811;28;20049;-69
2022/04/29 06:32:07;;;;;;;0.10;0.10;;;9.50;99.90;;;;;;5014751;28;20046;-69
2022/04/29 06:34:33;;;;;;;0.15;0.15;;;9.60;99.90;;;;;;5027230;28;20497;-69
2022/04/29 06:36:59;;;;;;;0.10;0.10;;;9.50;99.90;;;;;;5025302;28;20051;-69
2022/04/29 06:39:24;;;;;;;0.00;0.00;;;9.60;99.90;;;;;;5014611;28;20057;-69
2022/04/29 06:41:50;;;;;;;0.20;0.20;;;9.70;99.90;;;;;;5019704;28;21528;-69
2022/04/29 06:44:15;;;;;;;1.60;0.32;;;9.70;99.90;;;;;;5017682;28;20038;-69
2022/04/29 06:46:41;;;;;;;0.10;0.10;;;9.70;99.90;;;;;;5022003;28;20046;-69
2022/04/29 06:49:09;;;;;;;0.05;0.05;;;9.80;99.90;;;;;;5023305;28;20045;-69
2022/04/29 06:51:34;;;;;;;0.00;0.00;;;9.80;99.90;;;;;;5020412;28;20050;-69
2022/04/29 06:54:00;;;;;;;0.10;0.10;;;9.80;99.90;;;;;;5024102;28;20079;-69
2022/04/29 06:56:26;;;;;;;0.10;0.10;;;9.90;99.90;;;;;;5029690;28;20095;-69
2022/04/29 06:58:51;;;;;;;0.00;0.00;;;9.90;99.90;;;;;;5015860;28;20045;-69
2022/04/29 07:01:17;;;;;;;0.10;0.10;;;10.10;99.90;;;;;;5015289;28;20119;-69
2022/04/29 07:03:43;;;;;;;0.40;0.40;;;10.10;99.90;;;;;;5024308;28;20045;-69
2022/04/29 07:06:09;;;;;;;0.17;0.17;;;10.30;99.90;;;;;;5028051;28;20053;-69
2022/04/29 07:08:34;;;;;;;0.10;0.10;;;10.30;99.90;;;;;;5025125;28;20157;-69
2022/04/29 07:11:00;;;;;;;0.15;0.15;;;10.40;99.90;;;;;;5019691;28;20041;-69
2022/04/29 07:13:25;;;;;;;0.30;0.30;;;10.40;99.90;;;;;;5025458;28;20046;-69
2022/04/29 07:15:51;;;;;;;0.10;0.10;;;10.50;99.90;;;;;;5023959;28;20052;-69
2022/04/29 07:18:17;;;;;;;0.10;0.10;;;10.60;99.90;;;;;;5028003;28;20049;-69
2022/04/29 07:20:43;;;;;;;0.10;0.10;;;10.70;99.90;;;;;;5025014;28;20041;-69
2022/04/29 07:23:08;;;;;;;0.00;0.00;;;10.80;99.90;;;;;;5026292;28;20096;-69
2022/04/29 07:25:34;;;;;;;0.03;0.03;;;10.80;99.90;;;;;;5027052;28;20033;-69
2022/04/29 07:28:00;;;;;;;0.15;0.15;;;10.80;99.90;;;;;;5023047;28;20049;-67
2022/04/29 07:30:26;;;;;;;0.10;0.10;;;10.90;99.90;;;;;;5031640;28;20985;-67
2022/04/29 07:32:52;;;;;;;0.10;0.10;;;10.90;99.90;;;;;;5019672;28;20053;-66
2022/04/29 07:43:32;;;;;;;0.10;0.10;;;10.90;99.90;;;;;;5034234;28;20051;-68
2022/04/29 07:45:58;;;;;;;0.10;0.10;;;10.80;99.90;;;;;;5023469;28;20401;-69
2022/04/29 07:48:24;;;;;;;0.10;0.10;;;11.00;99.90;;;;;;5022593;28;20045;-68
2022/04/29 07:50:51;;;;;;;0.10;0.10;;;11.10;99.90;;;;;;5022070;28;20038;-68
2022/04/29 07:53:16;;;;;;;0.10;0.10;;;11.10;99.90;;;;;;5022498;28;20115;-68
2022/04/29 07:55:42;;;;;;;0.10;0.10;;;11.30;99.90;;;;;;5026839;28;20064;-68
2022/04/29 07:58:09;;;;;;;0.10;0.10;;;11.40;99.90;;;;;;5019372;28;20524;-68
2022/04/29 08:00:37;;;;;;;0.00;0.00;;;11.60;99.90;;;;;;5029691;28;20073;-69
2022/04/29 08:03:04;;;;;;;0.30;0.30;;;11.50;99.90;;;;;;5022088;28;20053;-70
2022/04/29 08:05:29;;;;;;;0.20;0.20;;;11.50;99.90;;;;;;5021616;28;20041;-69
2022/04/29 08:07:59;;;;;;;0.10;0.10;;;11.70;99.90;;;;;;5017449;28;20060;-70
2022/04/29 08:10:32;;;;;;;0.10;0.10;;;11.70;99.90;;;;;;5022845;28;20056;-69
2022/04/29 08:12:59;;;;;;;0.20;0.20;;;11.80;99.90;;;;;;5013220;28;20077;-69
2022/04/29 08:15:29;;;;;;;0.10;0.10;;;11.70;99.60;;;;;;5022122;28;20512;-69
2022/04/29 08:17:55;;;;;;;0.55;0.55;;;11.90;99.90;;;;;;5026951;28;20484;-69
2022/04/29 08:20:21;;;;;;;0.10;0.10;;;11.90;99.80;;;;;;5027902;28;20056;-69
2022/04/29 08:22:47;;;;;;;0.10;0.10;;;11.60;99.50;;;;;;5028975;28;20041;-69
2022/04/29 08:25:16;;;;;;;0.20;0.20;;;11.70;99.90;;;;;;5016474;28;20136;-69
2022/04/29 08:27:42;;;;;;;0.08;0.08;;;11.70;99.80;;;;;;5027445;28;20045;-69
2022/04/29 08:30:08;;;;;;;0.10;0.10;;;11.60;99.90;;;;;;5028235;28;20060;-69
2022/04/29 08:32:38;;;;;;;0.10;0.10;;;11.60;99.90;;;;;;5021580;28;20489;-69
2022/04/29 08:35:05;;;;;;;3.85;1.45;;;11.40;99.90;;;;;;5010604;28;20046;-69
2022/04/29 08:37:30;;;;;;;0.10;0.10;;;11.40;99.90;;;;;;5014748;28;20050;-69
2022/04/29 08:39:56;;;;;;;1.30;0.85;;;11.30;99.90;;;;;;5012979;28;20496;-69
2022/04/29 08:42:25;;;;;;;0.20;0.20;;;11.30;99.80;;;;;;5023131;28;20045;-69
2022/04/29 08:44:51;;;;;;;0.00;0.00;;;11.30;99.70;;;;;;5028774;28;20053;-68
2022/04/29 08:47:17;;;;;;;0.05;0.05;;;11.30;99.90;;;;;;5021907;28;20056;-69
2022/04/29 08:49:44;;;;;;;0.10;0.10;;;11.30;99.90;;;;;;5021680;28;20397;-68
2022/04/29 08:52:11;;;;;;;0.10;0.10;;;11.30;99.80;;;;;;5032444;28;20102;-66
2022/04/29 09:00:07;;;;;;;0.10;0.10;;;11.40;99.90;;;;;;5014011;28;20403;-68
2022/04/29 09:02:39;;;;;;;0.10;0.10;;;11.30;99.80;;;;;;5020458;28;20038;-68
2022/04/29 09:05:08;;;;;;;0.40;0.40;;;11.30;99.90;;;;;;5026397;28;20053;-68
2022/04/29 09:07:59;;;;;;;0.10;0.10;;;11.30;99.90;;;;;;5017974;28;20037;-68
2022/04/29 09:10:27;;;;;;;0.10;0.10;;;11.40;99.90;;;;;;5009069;28;20041;-68
2022/04/29 09:12:52;;;;;;;0.10;0.10;;;11.40;99.40;;;;;;5018781;28;20492;-69
2022/04/29 09:15:19;;;;;;;0.10;0.10;;;11.50;99.90;;;;;;5029902;28;20045;-68
2022/04/29 09:17:46;;;;;;;0.10;0.10;;;11.60;99.90;;;;;;5028477;28;20563;-68
2022/04/29 09:20:21;;;;;;;0.00;0.00;;;11.60;99.80;;;;;;5027019;28;20088;-68
2022/04/29 09:22:52;;;;;;;0.98;0.98;;;11.70;99.90;;;;;;5010717;28;20120;-68
2022/04/29 09:25:18;;;;;;;0.10;0.10;;;11.80;99.90;;;;;;5011387;28;20436;-68
2022/04/29 09:28:01;;;;;;;0.10;0.10;;;11.80;99.80;;;;;;5024685;28;20042;-68
2022/04/29 09:30:35;;;;;;;0.10;0.10;;;11.80;99.90;;;;;;5011185;28;20516;-68
2022/04/29 09:33:01;;;;;;;0.25;0.25;;;11.70;99.90;;;;;;5026838;28;20073;-68
2022/04/29 09:35:42;;;;;;;0.43;0.43;;;11.70;99.90;;;;;;5027236;28;20410;-68
2022/04/29 09:40:55;;;;;;;0.10;0.10;;;11.70;99.90;;;;;;5030564;28;20041;-67
2022/04/29 09:43:43;;;;;;;0.10;0.10;;;11.70;99.90;;;;;;5028840;28;20088;-68
2022/04/29 09:46:22;;;;;;;0.10;0.10;;;11.70;99.50;;;;;;5010552;28;20133;-68
2022/04/29 09:48:54;;;;;;;0.00;0.00;;;11.70;99.90;;;;;;5024981;28;20467;-68
2022/04/29 09:51:39;;;;;;;0.10;0.10;;;11.70;99.90;;;;;;5014964;28;20073;-68
2022/04/29 09:54:25;;;;;;;0.10;0.10;;;11.60;99.50;;;;;;5025304;28;20133;-68
2022/04/29 09:57:11;;;;;;;3.85;0.25;;;11.60;99.90;;;;;;5011907;28;20757;-68
2022/04/29 09:59:47;;;;;;;0.45;0.38;;;11.60;99.90;;;;;;5020879;28;20045;-68
2022/04/29 10:02:18;;;;;;;0.10;0.10;;;11.50;99.90;;;;;;5027760;28;20057;-68
2022/04/29 10:04:45;;;;;;;0.00;0.00;;;11.60;99.50;;;;;;5028806;28;20401;-68
2022/04/29 10:07:13;;;;;;;0.85;0.45;;;11.60;99.70;;;;;;5030379;28;20041;-68
2022/04/29 10:09:44;;;;;;;3.95;0.50;;;11.60;99.20;;;;;;5028608;28;20045;-68
2022/04/29 10:12:13;;;;;;;0.13;0.13;;;11.60;98.90;;;;;;5022164;28;20719;-68
2022/04/29 10:14:40;;;;;;;0.10;0.10;;;11.60;99.20;;;;;;5010190;28;20053;-68
2022/04/29 10:23:03;;;;;;;0.10;0.10;;;11.50;99.80;;;;;;5029170;28;20099;-68
2022/04/29 10:25:29;;;;;;;0.17;0.17;;;11.60;99.90;;;;;;5019404;28;20136;-68
2022/04/29 10:27:55;;;;;;;0.20;0.20;;;11.60;99.30;;;;;;5026900;28;20045;-68
2022/04/29 10:30:29;;;;;;;0.20;0.20;;;11.40;99.60;;;;;;5029060;28;20092;-68
2022/04/29 10:33:11;;;;;;;0.00;0.00;;;11.50;99.80;;;;;;5029534;28;20041;-68
2022/04/29 10:35:43;;;;;;;0.40;0.40;;;11.60;99.60;;;;;;5026701;28;20049;-68
2022/04/29 10:38:31;;;;;;;0.10;0.10;;;11.60;99.50;;;;;;5027557;28;20496;-68
2022/04/29 10:41:17;;;;;;;1.75;1.65;;;11.60;99.60;;;;;;5010939;28;20081;-68
2022/04/29 10:43:46;;;;;;;0.00;0.00;;;11.70;99.40;;;;;;5028376;28;20052;-68
2022/04/29 10:46:14;;;;;;;0.10;0.10;;;11.70;98.70;;;;;;5021737;28;20050;-68
2022/04/29 10:48:41;;;;;;;0.10;0.10;;;11.60;99.30;;;;;;5012326;28;20054;-68
2022/04/29 10:51:14;;;;;;;0.10;0.10;;;11.60;99.70;;;;;;5009932;28;20060;-68
2022/04/29 10:53:41;;;;;;;0.10;0.10;;;11.70;99.20;;;;;;5007620;28;20537;-68
2022/04/29 10:56:32;;;;;;;0.10;0.10;;;11.60;98.90;;;;;;5010976;28;20046;-68
2022/04/29 10:59:06;;;;;;;0.10;0.10;;;11.60;99.20;;;;;;5009565;28;20573;-69
2022/04/29 11:01:36;;;;;;;0.10;0.10;;;11.60;99.30;;;;;;5028894;28;20152;-68
2022/04/29 11:04:04;;;;;;;0.00;0.00;;;11.60;99.50;;;;;;5027463;28;20056;-68
2022/04/29 11:06:41;;;;;;;0.10;0.10;;;11.70;99.30;;;;;;5023900;28;20046;-68
2022/04/29 11:09:26;;;;;;;0.10;0.10;;;11.70;99.10;;;;;;5025964;28;20041;-68
2022/04/29 11:11:53;;;;;;;0.05;0.05;;;11.60;99.40;;;;;;5021295;28;20038;-69
2022/04/29 11:14:18;;;;;;;6.90;1.65;;;11.80;99.20;;;;;;5013698;28;20033;-68
2022/04/29 11:17:08;;;;;;;0.10;0.10;;;11.90;99.40;;;;;;5028581;28;20045;-68
2022/04/29 11:19:36;;;;;;;0.10;0.10;;;11.90;99.20;;;;;;5011434;28;20449;-68
2022/04/29 11:24:50;;;;;;;0.00;0.00;;;12.10;98.60;;;;;;5008691;28;20571;-68
2022/04/29 11:27:31;;;;;;;0.10;0.10;;;12.00;99.20;;;;;;5024603;28;20382;-68
2022/04/29 11:30:01;;;;;;;0.10;0.10;;;11.90;99.20;;;;;;5024327;28;20084;-68
2022/04/29 11:32:27;;;;;;;0.20;0.20;;;12.00;99.90;;;;;;5024347;28;20042;-68
2022/04/29 11:34:58;;;;;;;0.05;0.05;;;11.90;99.30;;;;;;5018860;28;20501;-68
2022/04/29 11:37:28;;;;;;;0.00;0.00;;;12.00;99.00;;;;;;5019694;28;20073;-68
2022/04/29 11:40:00;;;;;;;0.10;0.10;;;12.00;99.50;;;;;;5028362;28;20143;-68
2022/04/29 11:42:27;;;;;;;0.10;0.10;;;11.90;98.80;;;;;;5019331;28;20045;-68
2022/04/29 11:44:53;;;;;;;0.55;0.30;;;12.00;99.60;;;;;;5014053;28;20045;-68
2022/04/29 11:47:29;;;;;;;0.10;0.10;;;11.90;99.20;;;;;;5012215;28;20041;-68
2022/04/29 11:49:55;;;;;;;2.17;1.35;;;12.00;99.30;;;;;;5017579;28;20127;-68
2022/04/29 11:52:22;;;;;;;0.00;0.00;;;12.00;99.20;;;;;;5023799;28;20053;-68
2022/04/29 11:54:51;;;;;;;0.00;0.00;;;12.00;98.90;;;;;;5025245;28;20052;-69
2022/04/29 11:57:20;;;;;;;0.00;0.00;;;11.90;98.70;;;;;;5008092;28;20048;-69
2022/04/29 11:59:46;;;;;;;0.10;0.10;;;11.80;99.10;;;;;;5008176;28;20505;-69
2022/04/29 12:02:14;;;;;;;1.42;0.95;;;12.00;98.90;;;;;;5007714;28;20080;-68
2022/04/29 12:04:58;;;;;;;0.10;0.10;;;11.90;99.30;;;;;;5013660;28;20084;-69
2022/04/29 12:07:25;;;;;;;0.52;0.30;;;12.00;99.10;;;;;;5020676;28;20041;-69
2022/04/29 12:09:52;;;;;;;0.10;0.10;;;11.90;99.10;;;;;;5013762;28;20057;-69
2022/04/29 12:12:29;;;;;;;0.20;0.20;;;12.10;99.70;;;;;;5024569;28;20057;-69
2022/04/29 12:14:56;;;;;;;0.10;0.10;;;12.10;99.10;;;;;;5031016;28;20538;-69
2022/04/29 12:17:39;;;;;;;0.10;0.10;;;12.10;98.60;;;;;;5027196;28;20049;-69
2022/04/29 12:20:07;;;;;;;0.00;0.00;;;12.20;98.90;;;;;;5020004;28;20127;-68
2022/04/29 12:22:36;;;;;;;0.10;0.10;;;12.40;98.30;;;;;;5014306;28;20046;-69
2022/04/29 12:25:21;;;;;;;0.10;0.10;;;12.60;97.80;;;;;;5010249;28;20402;-69
2022/04/29 12:28:08;;;;;;;0.75;0.65;;;12.80;97.70;;;;;;5012257;28;20076;-69
2022/04/29 12:36:14;;;;;;;0.03;0.03;;;12.80;97.60;;;;;;5011085;28;20064;-66
2022/04/29 12:38:45;;;;;;;2.72;1.65;;;12.70;98.10;;;;;;5015358;28;20502;-66
2022/04/29 12:41:29;;;;;;;0.10;0.10;;;12.80;98.60;;;;;;5012327;28;20068;-66
2022/04/29 12:44:10;;;;;;;0.10;0.10;;;12.90;98.30;;;;;;5011572;28;20064;-66
2022/04/29 12:46:36;;;;;;;0.00;0.00;;;13.00;97.70;;;;;;5010189;28;20064;-66
2022/04/29 12:49:02;;;;;;;0.10;0.10;;;13.10;97.50;;;;;;5027878;28;20045;-66
2022/04/29 12:51:34;;;;;;;0.00;0.00;;;13.00;97.60;;;;;;5028980;28;20136;-66
2022/04/29 12:54:02;;;;;;;0.30;0.30;;;12.90;97.70;;;;;;5011581;28;20057;-66
2022/04/29 12:56:32;;;;;;;0.10;0.10;;;12.90;98.00;;;;;;5008528;28;20073;-66
2022/04/29 12:59:00;;;;;;;0.17;0.17;;;12.80;98.00;;;;;;5010781;28;20457;-66
2022/04/29 13:01:34;;;;;;;1.25;0.90;;;12.80;98.40;;;;;;5011069;28;20049;-66
2022/04/29 13:03:59;;;;;;;0.10;0.10;;;12.80;98.10;;;;;;5010994;28;20054;-66
2022/04/29 13:06:25;;;;;;;0.95;0.95;;;13.00;98.40;;;;;;5010910;28;20121;-66
2022/04/29 13:08:52;;;;;;;0.03;0.03;;;13.60;98.10;;;;;;5011424;28;20038;-67
2022/04/29 13:11:18;;;;;;;0.17;0.17;;;14.20;97.50;;;;;;5021354;28;20132;-66
2022/04/29 13:13:44;;;;;;;0.10;0.10;;;14.00;97.30;;;;;;5014893;28;20126;-67
2022/04/29 13:16:09;;;;;;;1.75;0.90;;;14.00;97.30;;;;;;5011550;28;20046;-67
2022/04/29 13:18:35;;;;;;;0.20;0.20;;;14.00;96.80;;;;;;5011116;28;20048;-66
2022/04/29 13:21:06;;;;;;;0.85;0.85;;;13.90;96.50;;;;;;5012140;28;20128;-66
2022/04/29 13:23:32;;;;;;;0.10;0.10;;;13.90;96.50;;;;;;5011194;28;20659;-66
2022/04/29 13:25:58;;;;;;;0.10;0.10;;;13.90;96.10;;;;;;5021565;28;20042;-66
2022/04/29 13:28:24;;;;;;;0.10;0.10;;;13.80;96.70;;;;;;5010089;28;20048;-66
2022/04/29 13:30:49;;;;;;;0.03;0.03;;;13.90;96.90;;;;;;5010334;28;20041;-66